sensor_id;sensor_type;location;lat;lon;timestamp;pressure;altitude;pressure_sealevel;temperature;humidity
64200;BME280;50516;52.272;5.136;2023-03-04T00:01:12;102724.97;;;6.78;73.54
64200;BME280;50516;52.272;5.136;2023-03-04T00:03:37;102730.22;;;6.80;73.70
64200;BME280;50516;52.272;5.136;2023-03-04T00:06:03;102725.59;;;6.73;74.11
64200;BME280;50516;52.272;5.136;2023-03-04T00:08:28;102725.59;;;6.73;74.42
64200;BME280;50516;52.272;5.136;2023-03-04T00:10:53;102717.47;;;6.87;74.81
64200;BME280;50516;52.272;5.136;2023-03-04T00:13:19;102721.25;;;6.92;74.25
64200;BME280;50516;52.272;5.136;2023-03-04T00:15:47;102721.72;;;6.96;74.86
64200;BME280;50516;52.272;5.136;2023-03-04T00:18:12;102724.34;;;6.83;75.20
64200;BME280;50516;52.272;5.136;2023-03-04T00:20:38;102727.50;;;6.80;75.03
64200;BME280;50516;52.272;5.136;2023-03-04T00:23:03;102723.44;;;6.69;74.90
64200;BME280;50516;52.272;5.136;2023-03-04T00:25:28;102732.16;;;6.51;74.59
64200;BME280;50516;52.272;5.136;2023-03-04T00:27:54;102718.91;;;6.48;74.42
64200;BME280;50516;52.272;5.136;2023-03-04T00:30:19;102725.47;;;6.60;73.90
64200;BME280;50516;52.272;5.136;2023-03-04T00:32:45;102724.69;;;6.66;74.02
64200;BME280;50516;52.272;5.136;2023-03-04T00:35:10;102716.00;;;6.91;73.34
64200;BME280;50516;52.272;5.136;2023-03-04T00:37:35;102726.88;;;6.84;73.39
64200;BME280;50516;52.272;5.136;2023-03-04T00:40:01;102725.44;;;6.82;73.03
64200;BME280;50516;52.272;5.136;2023-03-04T00:42:26;102723.97;;;6.51;72.96
64200;BME280;50516;52.272;5.136;2023-03-04T00:44:51;102724.59;;;6.53;73.81
64200;BME280;50516;52.272;5.136;2023-03-04T00:47:17;102722.94;;;6.58;73.83
64200;BME280;50516;52.272;5.136;2023-03-04T00:49:42;102723.66;;;6.67;73.88
64200;BME280;50516;52.272;5.136;2023-03-04T00:52:07;102732.09;;;6.72;73.80
64200;BME280;50516;52.272;5.136;2023-03-04T00:54:33;102730.63;;;6.76;73.76
64200;BME280;50516;52.272;5.136;2023-03-04T00:56:59;102727.25;;;6.74;73.87
64200;BME280;50516;52.272;5.136;2023-03-04T00:59:24;102722.84;;;6.73;73.53
64200;BME280;50516;52.272;5.136;2023-03-04T01:01:49;102730.50;;;6.56;73.47
64200;BME280;50516;52.272;5.136;2023-03-04T01:04:15;102739.47;;;6.50;73.91
64200;BME280;50516;52.272;5.136;2023-03-04T01:06:40;102729.06;;;6.61;74.06
64200;BME280;50516;52.272;5.136;2023-03-04T01:09:05;102726.25;;;6.54;74.41
64200;BME280;50516;52.272;5.136;2023-03-04T01:11:31;102741.53;;;6.42;74.92
64200;BME280;50516;52.272;5.136;2023-03-04T01:13:56;102733.53;;;6.40;74.49
64200;BME280;50516;52.272;5.136;2023-03-04T01:16:22;102725.63;;;6.24;74.85
64200;BME280;50516;52.272;5.136;2023-03-04T01:18:47;102725.69;;;6.30;75.26
64200;BME280;50516;52.272;5.136;2023-03-04T01:21:13;102721.16;;;6.44;75.20
64200;BME280;50516;52.272;5.136;2023-03-04T01:23:38;102719.81;;;6.62;74.89
64200;BME280;50516;52.272;5.136;2023-03-04T01:26:03;102718.66;;;6.78;74.21
64200;BME280;50516;52.272;5.136;2023-03-04T01:28:29;102711.38;;;6.85;74.24
64200;BME280;50516;52.272;5.136;2023-03-04T01:30:54;102708.63;;;6.85;73.95
64200;BME280;50516;52.272;5.136;2023-03-04T01:33:20;102709.50;;;6.57;74.23
64200;BME280;50516;52.272;5.136;2023-03-04T01:35:45;102705.34;;;6.61;74.09
64200;BME280;50516;52.272;5.136;2023-03-04T01:38:10;102706.59;;;6.65;73.94
64200;BME280;50516;52.272;5.136;2023-03-04T01:40:37;102704.41;;;6.82;73.07
64200;BME280;50516;52.272;5.136;2023-03-04T01:43:03;102704.19;;;6.77;72.62
64200;BME280;50516;52.272;5.136;2023-03-04T01:45:30;102698.38;;;6.93;71.88
64200;BME280;50516;52.272;5.136;2023-03-04T01:47:56;102695.38;;;6.82;71.67
64200;BME280;50516;52.272;5.136;2023-03-04T01:50:29;102700.34;;;6.71;71.90
64200;BME280;50516;52.272;5.136;2023-03-04T01:52:56;102695.69;;;6.65;71.89
64200;BME280;50516;52.272;5.136;2023-03-04T01:55:22;102693.94;;;6.51;72.44
64200;BME280;50516;52.272;5.136;2023-03-04T01:57:49;102687.09;;;6.68;72.32
64200;BME280;50516;52.272;5.136;2023-03-04T02:00:25;102685.69;;;6.79;71.57
64200;BME280;50516;52.272;5.136;2023-03-04T02:02:57;102682.94;;;6.72;72.17
64200;BME280;50516;52.272;5.136;2023-03-04T02:05:23;102672.78;;;6.60;72.95
64200;BME280;50516;52.272;5.136;2023-03-04T02:07:50;102677.31;;;6.81;72.67
64200;BME280;50516;52.272;5.136;2023-03-04T02:10:15;102672.59;;;6.61;73.04
64200;BME280;50516;52.272;5.136;2023-03-04T02:12:41;102673.78;;;6.52;73.61
64200;BME280;50516;52.272;5.136;2023-03-04T02:15:07;102662.03;;;6.51;73.72
64200;BME280;50516;52.272;5.136;2023-03-04T02:17:33;102661.84;;;6.25;74.43
64200;BME280;50516;52.272;5.136;2023-03-04T02:20:03;102664.72;;;6.45;74.01
64200;BME280;50516;52.272;5.136;2023-03-04T02:22:37;102665.50;;;6.38;73.55
64200;BME280;50516;52.272;5.136;2023-03-04T02:25:10;102651.88;;;6.38;73.61
64200;BME280;50516;52.272;5.136;2023-03-04T02:27:38;102657.13;;;6.40;73.39
64200;BME280;50516;52.272;5.136;2023-03-04T02:30:04;102646.81;;;6.35;73.11
64200;BME280;50516;52.272;5.136;2023-03-04T02:32:30;102648.97;;;6.47;72.91
64200;BME280;50516;52.272;5.136;2023-03-04T02:34:55;102647.38;;;6.59;72.72
64200;BME280;50516;52.272;5.136;2023-03-04T02:37:21;102642.97;;;6.58;72.64
64200;BME280;50516;52.272;5.136;2023-03-04T02:39:47;102641.03;;;6.52;73.23
64200;BME280;50516;52.272;5.136;2023-03-04T02:42:13;102629.09;;;6.53;73.40
64200;BME280;50516;52.272;5.136;2023-03-04T02:44:43;102629.94;;;6.60;73.26
64200;BME280;50516;52.272;5.136;2023-03-04T02:47:11;102622.88;;;6.72;73.36
64200;BME280;50516;52.272;5.136;2023-03-04T02:49:38;102626.44;;;6.73;73.50
64200;BME280;50516;52.272;5.136;2023-03-04T02:52:09;102627.88;;;6.62;73.59
64200;BME280;50516;52.272;5.136;2023-03-04T02:54:36;102618.78;;;6.48;74.09
64200;BME280;50516;52.272;5.136;2023-03-04T02:57:05;102624.16;;;6.35;74.47
64200;BME280;50516;52.272;5.136;2023-03-04T02:59:31;102617.41;;;6.31;74.76
64200;BME280;50516;52.272;5.136;2023-03-04T03:01:56;102613.31;;;6.48;74.21
64200;BME280;50516;52.272;5.136;2023-03-04T03:04:22;102622.63;;;6.61;74.03
64200;BME280;50516;52.272;5.136;2023-03-04T03:06:48;102634.59;;;6.66;73.79
64200;BME280;50516;52.272;5.136;2023-03-04T03:09:15;102618.13;;;6.46;74.17
64200;BME280;50516;52.272;5.136;2023-03-04T03:11:40;102617.06;;;6.47;74.62
64200;BME280;50516;52.272;5.136;2023-03-04T03:14:06;102617.53;;;6.51;74.96
64200;BME280;50516;52.272;5.136;2023-03-04T03:16:31;102616.84;;;6.42;75.28
64200;BME280;50516;52.272;5.136;2023-03-04T03:18:57;102619.19;;;6.52;75.19
64200;BME280;50516;52.272;5.136;2023-03-04T03:21:22;102609.38;;;6.57;75.04
64200;BME280;50516;52.272;5.136;2023-03-04T03:23:48;102607.84;;;6.48;75.35
64200;BME280;50516;52.272;5.136;2023-03-04T03:26:14;102610.00;;;6.60;74.93
64200;BME280;50516;52.272;5.136;2023-03-04T03:28:40;102615.69;;;6.65;75.33
64200;BME280;50516;52.272;5.136;2023-03-04T03:31:05;102605.88;;;6.70;75.17
64200;BME280;50516;52.272;5.136;2023-03-04T03:33:31;102607.06;;;6.54;75.59
64200;BME280;50516;52.272;5.136;2023-03-04T03:35:57;102599.50;;;6.56;76.03
64200;BME280;50516;52.272;5.136;2023-03-04T03:38:22;102603.78;;;6.37;76.37
64200;BME280;50516;52.272;5.136;2023-03-04T03:40:48;102607.28;;;6.25;77.22
64200;BME280;50516;52.272;5.136;2023-03-04T03:43:13;102604.31;;;6.19;77.18
64200;BME280;50516;52.272;5.136;2023-03-04T03:45:38;102611.81;;;6.46;76.95
64200;BME280;50516;52.272;5.136;2023-03-04T03:48:04;102607.31;;;6.66;76.32
64200;BME280;50516;52.272;5.136;2023-03-04T03:50:30;102608.03;;;6.82;75.89
64200;BME280;50516;52.272;5.136;2023-03-04T03:52:55;102613.56;;;6.60;76.59
64200;BME280;50516;52.272;5.136;2023-03-04T03:55:21;102608.69;;;6.49;76.89
64200;BME280;50516;52.272;5.136;2023-03-04T03:57:46;102610.31;;;6.36;77.66
64200;BME280;50516;52.272;5.136;2023-03-04T04:00:12;102607.09;;;6.26;78.36
64200;BME280;50516;52.272;5.136;2023-03-04T04:02:39;102607.78;;;6.35;78.41
64200;BME280;50516;52.272;5.136;2023-03-04T04:05:05;102606.91;;;6.34;78.57
64200;BME280;50516;52.272;5.136;2023-03-04T04:07:30;102614.72;;;6.37;78.62
64200;BME280;50516;52.272;5.136;2023-03-04T04:09:56;102604.78;;;6.30;79.50
64200;BME280;50516;52.272;5.136;2023-03-04T04:12:22;102604.00;;;6.36;79.11
64200;BME280;50516;52.272;5.136;2023-03-04T04:14:47;102607.88;;;6.55;79.02
64200;BME280;50516;52.272;5.136;2023-03-04T04:17:13;102612.19;;;6.78;78.33
64200;BME280;50516;52.272;5.136;2023-03-04T04:19:39;102609.72;;;6.89;77.59
64200;BME280;50516;52.272;5.136;2023-03-04T04:22:05;102603.81;;;6.86;77.78
64200;BME280;50516;52.272;5.136;2023-03-04T04:24:30;102606.31;;;6.74;77.99
64200;BME280;50516;52.272;5.136;2023-03-04T04:26:56;102611.31;;;6.64;78.80
64200;BME280;50516;52.272;5.136;2023-03-04T04:29:22;102606.72;;;6.78;78.20
64200;BME280;50516;52.272;5.136;2023-03-04T04:31:47;102607.94;;;6.68;78.49
64200;BME280;50516;52.272;5.136;2023-03-04T04:34:13;102603.75;;;6.66;78.31
64200;BME280;50516;52.272;5.136;2023-03-04T04:36:38;102607.13;;;6.74;78.08
64200;BME280;50516;52.272;5.136;2023-03-04T04:39:04;102615.69;;;6.65;78.24
64200;BME280;50516;52.272;5.136;2023-03-04T04:41:33;102612.13;;;6.64;78.48
64200;BME280;50516;52.272;5.136;2023-03-04T04:44:00;102611.19;;;6.92;77.70
64200;BME280;50516;52.272;5.136;2023-03-04T04:46:25;102606.28;;;6.67;77.65
64200;BME280;50516;52.272;5.136;2023-03-04T04:48:51;102614.69;;;6.72;78.07
64200;BME280;50516;52.272;5.136;2023-03-04T04:51:16;102604.19;;;6.69;77.79
64200;BME280;50516;52.272;5.136;2023-03-04T04:53:42;102603.75;;;6.66;77.82
64200;BME280;50516;52.272;5.136;2023-03-04T04:56:26;102610.47;;;6.70;78.25
64200;BME280;50516;52.272;5.136;2023-03-04T04:58:56;102609.88;;;6.74;77.91
64200;BME280;50516;52.272;5.136;2023-03-04T05:01:22;102607.13;;;6.74;77.88
64200;BME280;50516;52.272;5.136;2023-03-04T05:03:47;102606.47;;;6.66;78.04
64200;BME280;50516;52.272;5.136;2023-03-04T05:06:15;102609.97;;;6.53;78.44
64200;BME280;50516;52.272;5.136;2023-03-04T05:08:40;102607.53;;;6.71;77.78
64200;BME280;50516;52.272;5.136;2023-03-04T05:11:06;102601.44;;;6.69;78.23
64200;BME280;50516;52.272;5.136;2023-03-04T05:13:32;102608.78;;;6.62;78.86
64200;BME280;50516;52.272;5.136;2023-03-04T05:15:58;102607.31;;;6.66;78.67
64200;BME280;50516;52.272;5.136;2023-03-04T05:18:25;102607.44;;;6.51;79.68
64200;BME280;50516;52.272;5.136;2023-03-04T05:20:51;102613.88;;;6.72;79.02
64200;BME280;50516;52.272;5.136;2023-03-04T05:23:16;102609.84;;;6.68;79.16
64200;BME280;50516;52.272;5.136;2023-03-04T05:25:42;102614.34;;;6.47;79.89
64200;BME280;50516;52.272;5.136;2023-03-04T05:28:07;102616.31;;;6.67;79.37
64200;BME280;50516;52.272;5.136;2023-03-04T05:30:37;102613.75;;;6.52;79.68
64200;BME280;50516;52.272;5.136;2023-03-04T05:33:03;102618.91;;;6.33;80.46
64200;BME280;50516;52.272;5.136;2023-03-04T05:35:28;102614.06;;;6.35;80.27
64200;BME280;50516;52.272;5.136;2023-03-04T05:37:53;102610.75;;;6.40;80.25
64200;BME280;50516;52.272;5.136;2023-03-04T05:40:19;102611.81;;;6.46;80.24
64200;BME280;50516;52.272;5.136;2023-03-04T05:42:44;102606.19;;;6.54;80.39
64200;BME280;50516;52.272;5.136;2023-03-04T05:45:10;102608.13;;;6.60;80.55
64200;BME280;50516;52.272;5.136;2023-03-04T05:47:35;102610.44;;;6.63;79.96
64200;BME280;50516;52.272;5.136;2023-03-04T05:50:01;102613.81;;;6.65;80.83
64200;BME280;50516;52.272;5.136;2023-03-04T05:52:26;102611.19;;;6.85;80.12
64200;BME280;50516;52.272;5.136;2023-03-04T05:54:51;102611.31;;;6.64;80.87
64200;BME280;50516;52.272;5.136;2023-03-04T05:57:17;102614.63;;;6.59;81.92
64200;BME280;50516;52.272;5.136;2023-03-04T05:59:42;102621.06;;;6.45;82.40
64200;BME280;50516;52.272;5.136;2023-03-04T06:02:07;102603.25;;;6.55;82.56
64200;BME280;50516;52.272;5.136;2023-03-04T06:04:33;102607.59;;;6.36;83.28
64200;BME280;50516;52.272;5.136;2023-03-04T06:06:58;102603.56;;;6.32;83.46
64200;BME280;50516;52.272;5.136;2023-03-04T06:09:24;102605.97;;;6.49;82.95
64200;BME280;50516;52.272;5.136;2023-03-04T06:11:49;102603.88;;;6.51;83.27
64200;BME280;50516;52.272;5.136;2023-03-04T06:14:15;102600.47;;;6.42;83.20
64200;BME280;50516;52.272;5.136;2023-03-04T06:16:40;102601.41;;;6.56;82.51
64200;BME280;50516;52.272;5.136;2023-03-04T06:19:05;102595.34;;;6.67;81.99
64200;BME280;50516;52.272;5.136;2023-03-04T06:21:31;102588.78;;;6.55;81.99
64200;BME280;50516;52.272;5.136;2023-03-04T06:23:56;102605.88;;;6.35;82.29
64200;BME280;50516;52.272;5.136;2023-03-04T06:26:21;102597.97;;;6.47;82.04
64200;BME280;50516;52.272;5.136;2023-03-04T06:28:47;102605.78;;;6.57;81.37
64200;BME280;50516;52.272;5.136;2023-03-04T06:31:12;102605.59;;;6.58;80.87
64200;BME280;50516;52.272;5.136;2023-03-04T06:33:37;102614.94;;;6.43;81.23
64200;BME280;50516;52.272;5.136;2023-03-04T06:36:03;102613.28;;;6.42;81.31
64200;BME280;50516;52.272;5.136;2023-03-04T06:38:28;102611.41;;;6.49;81.14
64200;BME280;50516;52.272;5.136;2023-03-04T06:40:54;102621.81;;;6.32;81.22
64200;BME280;50516;52.272;5.136;2023-03-04T06:43:19;102618.69;;;6.07;83.20
64200;BME280;50516;52.272;5.136;2023-03-04T06:45:45;102620.16;;;6.02;85.21
64200;BME280;50516;52.272;5.136;2023-03-04T06:48:12;102629.47;;;6.15;85.40
64200;BME280;50516;52.272;5.136;2023-03-04T06:50:40;102627.47;;;6.02;85.77
64200;BME280;50516;52.272;5.136;2023-03-04T06:53:05;102626.50;;;6.10;86.17
64200;BME280;50516;52.272;5.136;2023-03-04T06:55:31;102625.41;;;6.04;86.21
64200;BME280;50516;52.272;5.136;2023-03-04T06:57:56;102621.63;;;6.33;85.22
64200;BME280;50516;52.272;5.136;2023-03-04T07:00:22;102625.97;;;6.63;84.00
64200;BME280;50516;52.272;5.136;2023-03-04T07:02:48;102623.84;;;6.58;83.72
64200;BME280;50516;52.272;5.136;2023-03-04T07:05:14;102625.38;;;6.67;83.27
64200;BME280;50516;52.272;5.136;2023-03-04T07:07:40;102623.75;;;6.80;82.96
64200;BME280;50516;52.272;5.136;2023-03-04T07:10:05;102623.22;;;7.04;82.10
64200;BME280;50516;52.272;5.136;2023-03-04T07:12:31;102625.31;;;7.02;81.68
64200;BME280;50516;52.272;5.136;2023-03-04T07:14:56;102621.13;;;7.06;81.87
64200;BME280;50516;52.272;5.136;2023-03-04T07:17:21;102623.66;;;7.08;81.64
64200;BME280;50516;52.272;5.136;2023-03-04T07:19:47;102621.97;;;7.13;81.75
64200;BME280;50516;52.272;5.136;2023-03-04T07:22:12;102623.84;;;7.06;81.50
64200;BME280;50516;52.272;5.136;2023-03-04T07:24:37;102624.03;;;6.98;82.26
64200;BME280;50516;52.272;5.136;2023-03-04T07:27:03;102632.47;;;7.10;82.06
64200;BME280;50516;52.272;5.136;2023-03-04T07:29:28;102635.69;;;7.27;81.49
64200;BME280;50516;52.272;5.136;2023-03-04T07:31:54;102628.41;;;7.54;80.42
64200;BME280;50516;52.272;5.136;2023-03-04T07:34:19;102631.75;;;7.56;80.27
64200;BME280;50516;52.272;5.136;2023-03-04T07:36:45;102631.75;;;7.63;80.56
64200;BME280;50516;52.272;5.136;2023-03-04T07:39:11;102632.78;;;7.48;80.61
64200;BME280;50516;52.272;5.136;2023-03-04T07:41:37;102623.50;;;7.36;81.09
64200;BME280;50516;52.272;5.136;2023-03-04T07:44:04;102639.47;;;7.39;81.71
64200;BME280;50516;52.272;5.136;2023-03-04T07:46:29;102638.84;;;7.24;81.55
64200;BME280;50516;52.272;5.136;2023-03-04T07:48:55;102642.78;;;7.08;82.51
64200;BME280;50516;52.272;5.136;2023-03-04T07:51:23;102647.31;;;6.94;83.12
64200;BME280;50516;52.272;5.136;2023-03-04T07:53:51;102645.13;;;7.18;82.05
64200;BME280;50516;52.272;5.136;2023-03-04T07:56:23;102641.69;;;7.02;82.71
64200;BME280;50516;52.272;5.136;2023-03-04T07:58:49;102642.41;;;7.31;82.66
64200;BME280;50516;52.272;5.136;2023-03-04T08:01:20;102645.34;;;7.23;83.09
64200;BME280;50516;52.272;5.136;2023-03-04T08:03:47;102644.22;;;7.10;83.26
64200;BME280;50516;52.272;5.136;2023-03-04T08:06:14;102652.13;;;7.54;82.73
64200;BME280;50516;52.272;5.136;2023-03-04T08:08:40;102649.81;;;7.50;82.41
64200;BME280;50516;52.272;5.136;2023-03-04T08:11:09;102639.28;;;7.47;82.48
64200;BME280;50516;52.272;5.136;2023-03-04T08:13:35;102655.47;;;7.42;82.88
64200;BME280;50516;52.272;5.136;2023-03-04T08:16:01;102657.38;;;7.42;82.78
64200;BME280;50516;52.272;5.136;2023-03-04T08:18:26;102655.75;;;7.61;82.77
64200;BME280;50516;52.272;5.136;2023-03-04T08:20:52;102653.22;;;7.73;81.98
64200;BME280;50516;52.272;5.136;2023-03-04T08:23:18;102656.16;;;7.71;82.22
64200;BME280;50516;52.272;5.136;2023-03-04T08:25:44;102665.19;;;7.78;81.95
64200;BME280;50516;52.272;5.136;2023-03-04T08:28:10;102666.00;;;7.45;82.48
64200;BME280;50516;52.272;5.136;2023-03-04T08:30:38;102658.41;;;7.34;83.35
64200;BME280;50516;52.272;5.136;2023-03-04T08:33:03;102653.41;;;7.51;83.56
64200;BME280;50516;52.272;5.136;2023-03-04T08:35:29;102664.16;;;7.66;83.12
64200;BME280;50516;52.272;5.136;2023-03-04T08:37:54;102657.00;;;7.65;82.99
64200;BME280;50516;52.272;5.136;2023-03-04T08:40:20;102657.66;;;7.74;82.99
64200;BME280;50516;52.272;5.136;2023-03-04T08:42:45;102661.63;;;7.84;83.05
64200;BME280;50516;52.272;5.136;2023-03-04T08:45:10;102657.66;;;7.80;83.21
64200;BME280;50516;52.272;5.136;2023-03-04T08:47:36;102655.75;;;7.67;84.02
64200;BME280;50516;52.272;5.136;2023-03-04T08:50:03;102657.00;;;7.78;83.55
64200;BME280;50516;52.272;5.136;2023-03-04T08:52:29;102661.84;;;7.76;84.19
64200;BME280;50516;52.272;5.136;2023-03-04T08:54:55;102654.47;;;7.70;84.66
64200;BME280;50516;52.272;5.136;2023-03-04T08:57:20;102651.34;;;7.86;84.42
64200;BME280;50516;52.272;5.136;2023-03-04T08:59:46;102653.22;;;7.93;83.76
64200;BME280;50516;52.272;5.136;2023-03-04T09:02:11;102658.28;;;7.82;84.69
64200;BME280;50516;52.272;5.136;2023-03-04T09:04:36;102661.22;;;7.88;84.54
64200;BME280;50516;52.272;5.136;2023-03-04T09:07:02;102669.44;;;8.01;84.81
64200;BME280;50516;52.272;5.136;2023-03-04T09:09:27;102663.34;;;8.12;84.55
64200;BME280;50516;52.272;5.136;2023-03-04T09:11:53;102659.94;;;8.17;84.28
64200;BME280;50516;52.272;5.136;2023-03-04T09:14:18;102655.13;;;8.26;84.48
64200;BME280;50516;52.272;5.136;2023-03-04T09:16:43;102650.91;;;8.43;83.64
64200;BME280;50516;52.272;5.136;2023-03-04T09:19:09;102651.13;;;8.35;83.47
64200;BME280;50516;52.272;5.136;2023-03-04T09:21:34;102644.56;;;8.49;83.38
64200;BME280;50516;52.272;5.136;2023-03-04T09:23:59;102654.66;;;8.55;82.33
64200;BME280;50516;52.272;5.136;2023-03-04T09:26:27;102650.25;;;8.28;82.77
64200;BME280;50516;52.272;5.136;2023-03-04T09:28:57;102650.31;;;8.01;84.72
64200;BME280;50516;52.272;5.136;2023-03-04T09:31:24;102648.38;;;8.08;86.00
64200;BME280;50516;52.272;5.136;2023-03-04T09:33:50;102649.84;;;7.97;85.89
64200;BME280;50516;52.272;5.136;2023-03-04T09:36:16;102648.59;;;8.20;85.31
64200;BME280;50516;52.272;5.136;2023-03-04T09:38:42;102642.72;;;8.10;86.06
64200;BME280;50516;52.272;5.136;2023-03-04T09:41:15;102643.09;;;8.53;85.32
64200;BME280;50516;52.272;5.136;2023-03-04T09:43:42;102651.47;;;8.79;83.76
64200;BME280;50516;52.272;5.136;2023-03-04T09:46:13;102643.19;;;8.92;83.26
64200;BME280;50516;52.272;5.136;2023-03-04T09:48:48;102643.25;;;9.24;82.37
64200;BME280;50516;52.272;5.136;2023-03-04T09:56:39;102638.16;;;9.27;80.80
64200;BME280;50516;52.272;5.136;2023-03-04T10:01:52;102635.16;;;9.36;79.99
64200;BME280;50516;52.272;5.136;2023-03-04T10:04:39;102631.59;;;8.90;80.18
64200;BME280;50516;52.272;5.136;2023-03-04T10:07:23;102624.56;;;8.49;82.45
64200;BME280;50516;52.272;5.136;2023-03-04T10:10:09;102625.41;;;8.49;83.87
64200;BME280;50516;52.272;5.136;2023-03-04T10:12:38;102630.47;;;8.46;84.95
64200;BME280;50516;52.272;5.136;2023-03-04T10:15:17;102630.25;;;8.47;85.26
64200;BME280;50516;52.272;5.136;2023-03-04T10:17:49;102638.06;;;8.23;86.37
64200;BME280;50516;52.272;5.136;2023-03-04T10:20:21;102638.69;;;7.99;87.96
64200;BME280;50516;52.272;5.136;2023-03-04T10:22:52;102628.59;;;8.13;89.11
64200;BME280;50516;52.272;5.136;2023-03-04T10:25:31;102631.75;;;8.43;88.75
64200;BME280;50516;52.272;5.136;2023-03-04T10:27:59;102625.59;;;8.48;88.35
64200;BME280;50516;52.272;5.136;2023-03-04T10:33:10;102619.16;;;8.87;88.47
64200;BME280;50516;52.272;5.136;2023-03-04T10:35:37;102622.84;;;9.13;87.64
64200;BME280;50516;52.272;5.136;2023-03-04T10:38:03;102615.69;;;9.44;85.80
64200;BME280;50516;52.272;5.136;2023-03-04T10:40:28;102617.53;;;9.18;87.20
64200;BME280;50516;52.272;5.136;2023-03-04T10:43:00;102625.88;;;9.37;87.17
64200;BME280;50516;52.272;5.136;2023-03-04T10:45:31;102613.75;;;9.51;87.33
64200;BME280;50516;52.272;5.136;2023-03-04T10:47:59;102617.13;;;9.78;86.79
64200;BME280;50516;52.272;5.136;2023-03-04T10:50:27;102618.63;;;9.99;86.16
64200;BME280;50516;52.272;5.136;2023-03-04T10:52:53;102609.78;;;9.47;86.68
64200;BME280;50516;52.272;5.136;2023-03-04T10:55:40;102619.41;;;8.79;87.75
64200;BME280;50516;52.272;5.136;2023-03-04T10:58:06;102620.41;;;8.13;89.68
64200;BME280;50516;52.272;5.136;2023-03-04T11:00:37;102633.41;;;8.31;90.76
64200;BME280;50516;52.272;5.136;2023-03-04T11:06:24;102635.09;;;8.18;89.37
64200;BME280;50516;52.272;5.136;2023-03-04T11:08:53;102625.38;;;8.43;88.83
64200;BME280;50516;52.272;5.136;2023-03-04T11:14:01;102629.56;;;8.65;86.26
64200;BME280;50516;52.272;5.136;2023-03-04T11:16:31;102623.59;;;8.82;86.14
64200;BME280;50516;52.272;5.136;2023-03-04T11:19:05;102625.31;;;8.76;85.31
64200;BME280;50516;52.272;5.136;2023-03-04T11:21:38;102610.56;;;8.84;83.88
64200;BME280;50516;52.272;5.136;2023-03-04T11:24:18;102609.50;;;9.23;84.25
64200;BME280;50516;52.272;5.136;2023-03-04T11:26:49;102607.00;;;9.79;83.21
64200;BME280;50516;52.272;5.136;2023-03-04T11:29:30;102608.16;;;9.90;81.96
64200;BME280;50516;52.272;5.136;2023-03-04T11:32:04;102606.44;;;9.95;80.07
64200;BME280;50516;52.272;5.136;2023-03-04T11:34:45;102610.97;;;9.83;79.42
64200;BME280;50516;52.272;5.136;2023-03-04T11:37:27;102607.72;;;9.67;79.87
64200;BME280;50516;52.272;5.136;2023-03-04T11:40:10;102603.66;;;9.13;81.54
64200;BME280;50516;52.272;5.136;2023-03-04T11:45:12;102610.56;;;8.84;83.74
64200;BME280;50516;52.272;5.136;2023-03-04T11:55:58;102600.34;;;8.46;87.22
64200;BME280;50516;52.272;5.136;2023-03-04T12:01:43;102603.03;;;8.59;86.74
64200;BME280;50516;52.272;5.136;2023-03-04T12:15:39;102584.66;;;9.75;80.07
64200;BME280;50516;52.272;5.136;2023-03-04T12:32:31;102572.69;;;9.95;74.56
64200;BME280;50516;52.272;5.136;2023-03-04T12:35:26;102562.75;;;9.94;74.49
64200;BME280;50516;52.272;5.136;2023-03-04T12:43:51;102561.84;;;9.24;75.60
64200;BME280;50516;52.272;5.136;2023-03-04T12:52:02;102564.28;;;8.62;77.62
64200;BME280;50516;52.272;5.136;2023-03-04T12:54:40;102558.00;;;8.55;77.52
64200;BME280;50516;52.272;5.136;2023-03-04T12:57:18;102554.34;;;8.74;75.93
64200;BME280;50516;52.272;5.136;2023-03-04T13:00:14;102548.78;;;8.88;75.91
64200;BME280;50516;52.272;5.136;2023-03-04T13:05:23;102545.34;;;9.31;74.03
64200;BME280;50516;52.272;5.136;2023-03-04T13:11:07;102547.44;;;9.36;73.50
64200;BME280;50516;52.272;5.136;2023-03-04T13:16:37;102534.34;;;9.38;72.99
64200;BME280;50516;52.272;5.136;2023-03-04T13:19:42;102542.78;;;9.36;73.47
64200;BME280;50516;52.272;5.136;2023-03-04T13:32:57;102519.38;;;8.70;75.97
64200;BME280;50516;52.272;5.136;2023-03-04T13:51:34;102504.06;;;8.94;70.43
64200;BME280;50516;52.272;5.136;2023-03-04T13:56:47;102510.22;;;8.89;69.02
64200;BME280;50516;52.272;5.136;2023-03-04T13:59:21;102517.72;;;9.01;70.10
64200;BME280;50516;52.272;5.136;2023-03-04T14:01:53;102509.69;;;9.06;68.43
64200;BME280;50516;52.272;5.136;2023-03-04T14:04:55;102513.72;;;9.28;68.73
64200;BME280;50516;52.272;5.136;2023-03-04T14:09:56;102507.03;;;8.92;68.64
64200;BME280;50516;52.272;5.136;2023-03-04T14:12:22;102507.63;;;8.63;69.39
64200;BME280;50516;52.272;5.136;2023-03-04T14:14:56;102508.66;;;8.68;70.30
64200;BME280;50516;52.272;5.136;2023-03-04T14:17:27;102497.03;;;8.73;70.31
64200;BME280;50516;52.272;5.136;2023-03-04T14:19:54;102499.59;;;8.68;70.79
64200;BME280;50516;52.272;5.136;2023-03-04T14:22:25;102497.25;;;8.71;70.62
64200;BME280;50516;52.272;5.136;2023-03-04T14:27:37;102511.59;;;8.08;73.98
64200;BME280;50516;52.272;5.136;2023-03-04T14:30:06;102504.38;;;8.27;74.98
64200;BME280;50516;52.272;5.136;2023-03-04T14:32:32;102507.59;;;8.17;75.16
64200;BME280;50516;52.272;5.136;2023-03-04T14:35:06;102499.13;;;8.26;75.51
64200;BME280;50516;52.272;5.136;2023-03-04T14:40:30;102499.13;;;8.26;75.30
64200;BME280;50516;52.272;5.136;2023-03-04T14:42:59;102496.63;;;8.17;75.52
64200;BME280;50516;52.272;5.136;2023-03-04T14:45:26;102494.13;;;8.16;75.91
64200;BME280;50516;52.272;5.136;2023-03-04T14:47:57;102479.41;;;8.03;74.89
64200;BME280;50516;52.272;5.136;2023-03-04T14:50:25;102485.50;;;8.12;75.18
64200;BME280;50516;52.272;5.136;2023-03-04T14:55:34;102481.06;;;8.18;74.09
64200;BME280;50516;52.272;5.136;2023-03-04T14:58:08;102466.22;;;8.39;73.90
64200;BME280;50516;52.272;5.136;2023-03-04T15:00:36;102465.56;;;8.50;73.63